sensor_id;sensor_type;location;lat;lon;timestamp;P1;durP1;ratioP1;P2;durP2;ratioP2
22230;SDS011;11284;48.086;-1.652;2024-02-26T00:00:00;6.28;;;2.55;;
22230;SDS011;11284;48.086;-1.652;2024-02-26T00:02:26;7.28;;;2.70;;
22230;SDS011;11284;48.086;-1.652;2024-02-26T00:04:52;11.32;;;3.28;;
22230;SDS011;11284;48.086;-1.652;2024-02-26T00:07:17;9.32;;;3.38;;
22230;SDS011;11284;48.086;-1.652;2024-02-26T00:09:43;7.97;;;3.53;;
22230;SDS011;11284;48.086;-1.652;2024-02-26T00:12:09;5.63;;;2.50;;
22230;SDS011;11284;48.086;-1.652;2024-02-26T00:14:35;6.82;;;3.00;;
22230;SDS011;11284;48.086;-1.652;2024-02-26T00:17:01;9.30;;;3.13;;
22230;SDS011;11284;48.086;-1.652;2024-02-26T00:19:27;6.82;;;2.80;;
22230;SDS011;11284;48.086;-1.652;2024-02-26T00:21:53;8.30;;;3.15;;
22230;SDS011;11284;48.086;-1.652;2024-02-26T00:24:20;8.75;;;2.92;;
22230;SDS011;11284;48.086;-1.652;2024-02-26T00:26:46;8.88;;;2.97;;
22230;SDS011;11284;48.086;-1.652;2024-02-26T00:29:17;7.85;;;3.10;;
22230;SDS011;11284;48.086;-1.652;2024-02-26T00:31:43;7.05;;;2.65;;
22230;SDS011;11284;48.086;-1.652;2024-02-26T00:34:09;7.10;;;2.50;;
22230;SDS011;11284;48.086;-1.652;2024-02-26T00:36:35;7.15;;;2.30;;
22230;SDS011;11284;48.086;-1.652;2024-02-26T00:39:01;8.30;;;2.60;;
22230;SDS011;11284;48.086;-1.652;2024-02-26T00:41:28;6.15;;;2.38;;
22230;SDS011;11284;48.086;-1.652;2024-02-26T00:43:54;8.02;;;2.40;;
22230;SDS011;11284;48.086;-1.652;2024-02-26T00:46:20;7.97;;;2.33;;
22230;SDS011;11284;48.086;-1.652;2024-02-26T00:48:46;6.18;;;2.35;;
22230;SDS011;11284;48.086;-1.652;2024-02-26T00:51:12;5.53;;;2.00;;
22230;SDS011;11284;48.086;-1.652;2024-02-26T00:53:38;6.57;;;2.55;;
22230;SDS011;11284;48.086;-1.652;2024-02-26T00:56:04;5.07;;;2.20;;
22230;SDS011;11284;48.086;-1.652;2024-02-26T00:58:31;10.65;;;4.47;;
22230;SDS011;11284;48.086;-1.652;2024-02-26T01:00:57;8.73;;;4.50;;
22230;SDS011;11284;48.086;-1.652;2024-02-26T01:03:24;9.13;;;3.58;;
22230;SDS011;11284;48.086;-1.652;2024-02-26T01:05:50;8.57;;;3.10;;
22230;SDS011;11284;48.086;-1.652;2024-02-26T01:08:16;9.27;;;3.28;;
22230;SDS011;11284;48.086;-1.652;2024-02-26T01:10:42;8.05;;;2.75;;
22230;SDS011;11284;48.086;-1.652;2024-02-26T01:13:08;7.10;;;2.53;;
22230;SDS011;11284;48.086;-1.652;2024-02-26T01:15:34;7.65;;;2.20;;
22230;SDS011;11284;48.086;-1.652;2024-02-26T01:18:00;7.57;;;2.67;;
22230;SDS011;11284;48.086;-1.652;2024-02-26T01:20:26;6.75;;;2.03;;
22230;SDS011;11284;48.086;-1.652;2024-02-26T01:22:52;6.30;;;2.10;;
22230;SDS011;11284;48.086;-1.652;2024-02-26T01:25:18;8.00;;;2.00;;
22230;SDS011;11284;48.086;-1.652;2024-02-26T01:27:44;6.88;;;1.90;;
22230;SDS011;11284;48.086;-1.652;2024-02-26T01:30:10;5.40;;;1.65;;
22230;SDS011;11284;48.086;-1.652;2024-02-26T01:32:36;6.35;;;1.80;;
22230;SDS011;11284;48.086;-1.652;2024-02-26T01:35:02;7.63;;;2.13;;
22230;SDS011;11284;48.086;-1.652;2024-02-26T01:37:28;7.22;;;2.25;;
22230;SDS011;11284;48.086;-1.652;2024-02-26T01:39:55;6.15;;;1.90;;
22230;SDS011;11284;48.086;-1.652;2024-02-26T01:42:21;4.95;;;1.75;;
22230;SDS011;11284;48.086;-1.652;2024-02-26T01:44:47;9.50;;;2.00;;
22230;SDS011;11284;48.086;-1.652;2024-02-26T01:47:13;7.43;;;2.00;;
22230;SDS011;11284;48.086;-1.652;2024-02-26T01:49:39;9.02;;;2.30;;
22230;SDS011;11284;48.086;-1.652;2024-02-26T01:52:06;8.95;;;1.88;;
22230;SDS011;11284;48.086;-1.652;2024-02-26T01:54:33;7.10;;;2.10;;
22230;SDS011;11284;48.086;-1.652;2024-02-26T01:57:00;8.55;;;2.33;;
22230;SDS011;11284;48.086;-1.652;2024-02-26T01:59:27;8.65;;;2.75;;
22230;SDS011;11284;48.086;-1.652;2024-02-26T02:01:54;7.13;;;1.95;;
22230;SDS011;11284;48.086;-1.652;2024-02-26T02:04:21;7.25;;;2.83;;
22230;SDS011;11284;48.086;-1.652;2024-02-26T02:06:48;7.03;;;2.10;;
22230;SDS011;11284;48.086;-1.652;2024-02-26T02:09:14;5.95;;;2.30;;
22230;SDS011;11284;48.086;-1.652;2024-02-26T02:11:40;7.32;;;2.40;;
22230;SDS011;11284;48.086;-1.652;2024-02-26T02:14:07;6.88;;;2.55;;
22230;SDS011;11284;48.086;-1.652;2024-02-26T02:16:33;7.90;;;2.47;;
22230;SDS011;11284;48.086;-1.652;2024-02-26T02:18:59;10.68;;;2.30;;
22230;SDS011;11284;48.086;-1.652;2024-02-26T02:21:25;6.45;;;2.38;;
22230;SDS011;11284;48.086;-1.652;2024-02-26T02:23:51;6.18;;;2.30;;
22230;SDS011;11284;48.086;-1.652;2024-02-26T02:26:17;11.30;;;2.47;;
22230;SDS011;11284;48.086;-1.652;2024-02-26T02:28:44;6.28;;;2.35;;
22230;SDS011;11284;48.086;-1.652;2024-02-26T02:31:10;7.53;;;2.45;;
22230;SDS011;11284;48.086;-1.652;2024-02-26T02:33:37;11.77;;;2.70;;
22230;SDS011;11284;48.086;-1.652;2024-02-26T02:36:03;7.85;;;2.50;;
22230;SDS011;11284;48.086;-1.652;2024-02-26T02:38:29;10.25;;;2.85;;
22230;SDS011;11284;48.086;-1.652;2024-02-26T02:40:56;7.45;;;2.83;;
22230;SDS011;11284;48.086;-1.652;2024-02-26T02:43:22;7.38;;;2.92;;
22230;SDS011;11284;48.086;-1.652;2024-02-26T02:45:48;7.65;;;2.60;;
22230;SDS011;11284;48.086;-1.652;2024-02-26T02:48:14;9.98;;;3.10;;
22230;SDS011;11284;48.086;-1.652;2024-02-26T02:50:40;6.97;;;2.88;;
22230;SDS011;11284;48.086;-1.652;2024-02-26T02:53:06;7.55;;;3.20;;
22230;SDS011;11284;48.086;-1.652;2024-02-26T02:55:32;8.48;;;2.88;;
22230;SDS011;11284;48.086;-1.652;2024-02-26T02:57:58;11.02;;;3.40;;
22230;SDS011;11284;48.086;-1.652;2024-02-26T03:00:24;10.68;;;3.15;;
22230;SDS011;11284;48.086;-1.652;2024-02-26T03:02:50;10.75;;;3.95;;
22230;SDS011;11284;48.086;-1.652;2024-02-26T03:05:16;7.35;;;3.10;;
22230;SDS011;11284;48.086;-1.652;2024-02-26T03:07:42;8.10;;;3.42;;
22230;SDS011;11284;48.086;-1.652;2024-02-26T03:10:09;6.82;;;3.17;;
22230;SDS011;11284;48.086;-1.652;2024-02-26T03:12:35;9.82;;;3.45;;
22230;SDS011;11284;48.086;-1.652;2024-02-26T03:15:01;7.80;;;3.33;;
22230;SDS011;11284;48.086;-1.652;2024-02-26T03:17:30;7.40;;;3.40;;
22230;SDS011;11284;48.086;-1.652;2024-02-26T03:19:56;8.80;;;3.70;;
22230;SDS011;11284;48.086;-1.652;2024-02-26T03:22:22;6.43;;;3.20;;
22230;SDS011;11284;48.086;-1.652;2024-02-26T03:24:48;12.15;;;3.83;;
22230;SDS011;11284;48.086;-1.652;2024-02-26T03:27:14;6.93;;;3.35;;
22230;SDS011;11284;48.086;-1.652;2024-02-26T03:29:40;7.40;;;3.08;;
22230;SDS011;11284;48.086;-1.652;2024-02-26T03:32:06;9.60;;;3.42;;
22230;SDS011;11284;48.086;-1.652;2024-02-26T03:34:32;7.65;;;3.20;;
22230;SDS011;11284;48.086;-1.652;2024-02-26T03:37:04;8.65;;;3.38;;
22230;SDS011;11284;48.086;-1.652;2024-02-26T03:39:30;7.97;;;3.47;;
22230;SDS011;11284;48.086;-1.652;2024-02-26T03:41:56;6.90;;;3.80;;
22230;SDS011;11284;48.086;-1.652;2024-02-26T03:44:22;8.05;;;3.22;;
22230;SDS011;11284;48.086;-1.652;2024-02-26T03:46:48;6.60;;;3.45;;
22230;SDS011;11284;48.086;-1.652;2024-02-26T03:49:14;8.07;;;3.20;;
22230;SDS011;11284;48.086;-1.652;2024-02-26T03:51:41;9.50;;;3.40;;
22230;SDS011;11284;48.086;-1.652;2024-02-26T03:54:07;7.60;;;3.25;;
22230;SDS011;11284;48.086;-1.652;2024-02-26T03:56:33;5.72;;;3.40;;
22230;SDS011;11284;48.086;-1.652;2024-02-26T03:58:59;7.40;;;3.05;;
22230;SDS011;11284;48.086;-1.652;2024-02-26T04:01:27;7.00;;;3.42;;
22230;SDS011;11284;48.086;-1.652;2024-02-26T04:03:53;5.00;;;2.70;;
22230;SDS011;11284;48.086;-1.652;2024-02-26T04:06:19;5.50;;;2.85;;
22230;SDS011;11284;48.086;-1.652;2024-02-26T04:08:48;5.55;;;2.95;;
22230;SDS011;11284;48.086;-1.652;2024-02-26T04:11:14;6.95;;;3.17;;
22230;SDS011;11284;48.086;-1.652;2024-02-26T04:13:43;5.20;;;2.55;;
22230;SDS011;11284;48.086;-1.652;2024-02-26T04:16:11;6.45;;;3.13;;
22230;SDS011;11284;48.086;-1.652;2024-02-26T04:18:37;5.97;;;2.60;;
22230;SDS011;11284;48.086;-1.652;2024-02-26T04:21:04;5.78;;;2.70;;
22230;SDS011;11284;48.086;-1.652;2024-02-26T04:23:32;5.60;;;2.20;;
22230;SDS011;11284;48.086;-1.652;2024-02-26T04:25:58;4.82;;;2.08;;
22230;SDS011;11284;48.086;-1.652;2024-02-26T04:28:24;3.30;;;1.70;;
22230;SDS011;11284;48.086;-1.652;2024-02-26T04:30:56;5.07;;;1.70;;
22230;SDS011;11284;48.086;-1.652;2024-02-26T04:33:22;4.35;;;1.83;;
22230;SDS011;11284;48.086;-1.652;2024-02-26T04:35:48;3.83;;;1.63;;
22230;SDS011;11284;48.086;-1.652;2024-02-26T04:38:14;4.15;;;1.80;;
22230;SDS011;11284;48.086;-1.652;2024-02-26T04:40:40;3.65;;;1.88;;
22230;SDS011;11284;48.086;-1.652;2024-02-26T04:43:06;4.63;;;1.67;;
22230;SDS011;11284;48.086;-1.652;2024-02-26T04:45:32;3.67;;;1.50;;
22230;SDS011;11284;48.086;-1.652;2024-02-26T04:47:59;4.38;;;1.70;;
22230;SDS011;11284;48.086;-1.652;2024-02-26T04:50:25;3.30;;;1.63;;
22230;SDS011;11284;48.086;-1.652;2024-02-26T04:52:51;3.58;;;1.55;;
22230;SDS011;11284;48.086;-1.652;2024-02-26T04:55:17;3.40;;;1.50;;
22230;SDS011;11284;48.086;-1.652;2024-02-26T04:57:43;3.10;;;1.40;;
22230;SDS011;11284;48.086;-1.652;2024-02-26T05:00:09;5.43;;;1.60;;
22230;SDS011;11284;48.086;-1.652;2024-02-26T05:02:35;2.78;;;1.50;;
22230;SDS011;11284;48.086;-1.652;2024-02-26T05:05:04;3.17;;;1.42;;
22230;SDS011;11284;48.086;-1.652;2024-02-26T05:07:30;4.82;;;1.70;;
22230;SDS011;11284;48.086;-1.652;2024-02-26T05:09:57;3.28;;;1.65;;
22230;SDS011;11284;48.086;-1.652;2024-02-26T05:12:23;3.60;;;1.60;;
22230;SDS011;11284;48.086;-1.652;2024-02-26T05:14:49;3.10;;;1.60;;
22230;SDS011;11284;48.086;-1.652;2024-02-26T05:17:15;2.95;;;1.42;;
22230;SDS011;11284;48.086;-1.652;2024-02-26T05:19:41;3.15;;;1.40;;
22230;SDS011;11284;48.086;-1.652;2024-02-26T05:22:07;3.90;;;1.67;;
22230;SDS011;11284;48.086;-1.652;2024-02-26T05:24:33;3.78;;;1.65;;
22230;SDS011;11284;48.086;-1.652;2024-02-26T05:26:59;3.83;;;1.40;;
22230;SDS011;11284;48.086;-1.652;2024-02-26T05:29:25;4.35;;;1.50;;
22230;SDS011;11284;48.086;-1.652;2024-02-26T05:31:51;4.05;;;1.60;;
22230;SDS011;11284;48.086;-1.652;2024-02-26T05:34:19;3.30;;;1.20;;
22230;SDS011;11284;48.086;-1.652;2024-02-26T05:36:45;4.60;;;1.58;;
22230;SDS011;11284;48.086;-1.652;2024-02-26T05:39:11;3.40;;;1.20;;
22230;SDS011;11284;48.086;-1.652;2024-02-26T05:41:37;3.85;;;1.10;;
22230;SDS011;11284;48.086;-1.652;2024-02-26T05:44:03;3.08;;;1.27;;
22230;SDS011;11284;48.086;-1.652;2024-02-26T05:46:29;3.17;;;0.70;;
22230;SDS011;11284;48.086;-1.652;2024-02-26T05:48:55;2.33;;;0.77;;
22230;SDS011;11284;48.086;-1.652;2024-02-26T05:51:21;2.17;;;0.73;;
22230;SDS011;11284;48.086;-1.652;2024-02-26T05:53:47;2.45;;;0.90;;
22230;SDS011;11284;48.086;-1.652;2024-02-26T05:56:18;2.10;;;0.70;;
22230;SDS011;11284;48.086;-1.652;2024-02-26T05:58:44;3.17;;;1.17;;
22230;SDS011;11284;48.086;-1.652;2024-02-26T06:01:10;2.35;;;1.00;;
22230;SDS011;11284;48.086;-1.652;2024-02-26T06:03:36;2.30;;;1.10;;
22230;SDS011;11284;48.086;-1.652;2024-02-26T06:06:02;2.17;;;0.90;;
22230;SDS011;11284;48.086;-1.652;2024-02-26T06:08:28;3.05;;;0.80;;
22230;SDS011;11284;48.086;-1.652;2024-02-26T06:10:54;3.22;;;0.90;;
22230;SDS011;11284;48.086;-1.652;2024-02-26T06:13:20;2.15;;;0.90;;
22230;SDS011;11284;48.086;-1.652;2024-02-26T06:15:46;2.67;;;1.20;;
22230;SDS011;11284;48.086;-1.652;2024-02-26T06:18:12;2.72;;;1.10;;
22230;SDS011;11284;48.086;-1.652;2024-02-26T06:20:38;2.60;;;1.02;;
22230;SDS011;11284;48.086;-1.652;2024-02-26T06:23:04;2.42;;;1.00;;
22230;SDS011;11284;48.086;-1.652;2024-02-26T06:25:30;2.58;;;1.00;;
22230;SDS011;11284;48.086;-1.652;2024-02-26T06:27:56;1.88;;;0.70;;
22230;SDS011;11284;48.086;-1.652;2024-02-26T06:30:22;2.90;;;0.70;;
22230;SDS011;11284;48.086;-1.652;2024-02-26T06:32:48;1.55;;;0.60;;
22230;SDS011;11284;48.086;-1.652;2024-02-26T06:35:14;2.25;;;0.60;;
22230;SDS011;11284;48.086;-1.652;2024-02-26T06:37:40;1.33;;;0.50;;
22230;SDS011;11284;48.086;-1.652;2024-02-26T06:40:06;1.15;;;0.35;;
22230;SDS011;11284;48.086;-1.652;2024-02-26T06:42:32;2.47;;;0.50;;
22230;SDS011;11284;48.086;-1.652;2024-02-26T06:44:58;1.08;;;0.40;;
22230;SDS011;11284;48.086;-1.652;2024-02-26T06:47:24;1.70;;;0.50;;
22230;SDS011;11284;48.086;-1.652;2024-02-26T06:49:51;1.90;;;0.63;;
22230;SDS011;11284;48.086;-1.652;2024-02-26T06:52:17;2.20;;;0.40;;
22230;SDS011;11284;48.086;-1.652;2024-02-26T06:54:43;2.58;;;0.50;;
22230;SDS011;11284;48.086;-1.652;2024-02-26T06:57:09;3.50;;;0.70;;
22230;SDS011;11284;48.086;-1.652;2024-02-26T06:59:36;2.58;;;0.50;;
22230;SDS011;11284;48.086;-1.652;2024-02-26T07:02:02;2.58;;;0.60;;
22230;SDS011;11284;48.086;-1.652;2024-02-26T07:04:28;2.30;;;0.63;;
22230;SDS011;11284;48.086;-1.652;2024-02-26T07:06:54;3.67;;;0.80;;
22230;SDS011;11284;48.086;-1.652;2024-02-26T07:09:20;3.72;;;0.82;;
22230;SDS011;11284;48.086;-1.652;2024-02-26T07:11:46;2.22;;;0.60;;
22230;SDS011;11284;48.086;-1.652;2024-02-26T07:14:12;3.45;;;0.90;;
22230;SDS011;11284;48.086;-1.652;2024-02-26T07:16:38;2.92;;;0.90;;
22230;SDS011;11284;48.086;-1.652;2024-02-26T07:19:04;2.78;;;0.90;;
22230;SDS011;11284;48.086;-1.652;2024-02-26T07:21:30;4.43;;;1.00;;
22230;SDS011;11284;48.086;-1.652;2024-02-26T07:23:56;2.58;;;0.73;;
22230;SDS011;11284;48.086;-1.652;2024-02-26T07:26:22;3.45;;;0.65;;
22230;SDS011;11284;48.086;-1.652;2024-02-26T07:28:51;2.90;;;0.70;;
22230;SDS011;11284;48.086;-1.652;2024-02-26T07:31:17;2.33;;;0.68;;
22230;SDS011;11284;48.086;-1.652;2024-02-26T07:33:43;2.85;;;0.75;;
22230;SDS011;11284;48.086;-1.652;2024-02-26T07:36:09;4.05;;;0.90;;
22230;SDS011;11284;48.086;-1.652;2024-02-26T07:38:35;2.83;;;0.60;;
22230;SDS011;11284;48.086;-1.652;2024-02-26T07:41:02;4.22;;;1.08;;
22230;SDS011;11284;48.086;-1.652;2024-02-26T07:43:28;3.22;;;0.80;;
22230;SDS011;11284;48.086;-1.652;2024-02-26T07:45:54;3.00;;;0.60;;
22230;SDS011;11284;48.086;-1.652;2024-02-26T07:48:20;2.55;;;0.70;;
22230;SDS011;11284;48.086;-1.652;2024-02-26T07:50:46;3.13;;;0.65;;
22230;SDS011;11284;48.086;-1.652;2024-02-26T07:53:13;3.58;;;1.00;;
22230;SDS011;11284;48.086;-1.652;2024-02-26T07:55:39;2.35;;;0.70;;
22230;SDS011;11284;48.086;-1.652;2024-02-26T07:58:05;2.92;;;0.60;;
22230;SDS011;11284;48.086;-1.652;2024-02-26T08:00:31;3.00;;;0.70;;
22230;SDS011;11284;48.086;-1.652;2024-02-26T08:02:57;4.47;;;1.17;;
22230;SDS011;11284;48.086;-1.652;2024-02-26T08:05:23;3.40;;;0.80;;
22230;SDS011;11284;48.086;-1.652;2024-02-26T08:07:50;3.50;;;0.60;;
22230;SDS011;11284;48.086;-1.652;2024-02-26T08:10:16;2.60;;;0.70;;
22230;SDS011;11284;48.086;-1.652;2024-02-26T08:12:42;4.22;;;0.88;;
22230;SDS011;11284;48.086;-1.652;2024-02-26T08:15:08;2.78;;;0.93;;
22230;SDS011;11284;48.086;-1.652;2024-02-26T08:17:34;5.57;;;0.90;;
22230;SDS011;11284;48.086;-1.652;2024-02-26T08:20:01;3.53;;;0.70;;
22230;SDS011;11284;48.086;-1.652;2024-02-26T08:22:27;4.80;;;1.00;;
22230;SDS011;11284;48.086;-1.652;2024-02-26T08:24:53;4.68;;;0.75;;
22230;SDS011;11284;48.086;-1.652;2024-02-26T08:27:19;4.20;;;0.90;;
22230;SDS011;11284;48.086;-1.652;2024-02-26T08:29:45;4.63;;;1.33;;
22230;SDS011;11284;48.086;-1.652;2024-02-26T08:32:11;4.68;;;0.90;;
22230;SDS011;11284;48.086;-1.652;2024-02-26T08:34:37;3.78;;;0.70;;
22230;SDS011;11284;48.086;-1.652;2024-02-26T08:37:03;4.13;;;0.82;;
22230;SDS011;11284;48.086;-1.652;2024-02-26T08:39:29;2.58;;;0.70;;
22230;SDS011;11284;48.086;-1.652;2024-02-26T08:41:55;5.90;;;1.08;;
22230;SDS011;11284;48.086;-1.652;2024-02-26T08:44:21;5.18;;;0.80;;
22230;SDS011;11284;48.086;-1.652;2024-02-26T08:46:47;6.72;;;1.13;;
22230;SDS011;11284;48.086;-1.652;2024-02-26T08:49:13;3.50;;;0.90;;
22230;SDS011;11284;48.086;-1.652;2024-02-26T08:51:41;4.03;;;0.90;;
22230;SDS011;11284;48.086;-1.652;2024-02-26T08:54:08;3.42;;;1.00;;
22230;SDS011;11284;48.086;-1.652;2024-02-26T08:56:34;4.03;;;0.73;;
22230;SDS011;11284;48.086;-1.652;2024-02-26T08:59:00;4.05;;;0.80;;
22230;SDS011;11284;48.086;-1.652;2024-02-26T09:01:28;7.55;;;1.00;;
22230;SDS011;11284;48.086;-1.652;2024-02-26T09:03:54;4.03;;;0.80;;
22230;SDS011;11284;48.086;-1.652;2024-02-26T09:06:21;4.32;;;0.90;;
22230;SDS011;11284;48.086;-1.652;2024-02-26T09:08:47;4.07;;;0.80;;
22230;SDS011;11284;48.086;-1.652;2024-02-26T09:11:13;3.30;;;0.65;;
22230;SDS011;11284;48.086;-1.652;2024-02-26T09:13:39;3.75;;;0.60;;
22230;SDS011;11284;48.086;-1.652;2024-02-26T09:16:05;4.00;;;0.80;;
22230;SDS011;11284;48.086;-1.652;2024-02-26T09:18:32;2.85;;;0.82;;
22230;SDS011;11284;48.086;-1.652;2024-02-26T09:20:57;3.10;;;0.75;;
22230;SDS011;11284;48.086;-1.652;2024-02-26T09:23:23;4.07;;;0.82;;
22230;SDS011;11284;48.086;-1.652;2024-02-26T09:25:50;4.10;;;1.10;;
22230;SDS011;11284;48.086;-1.652;2024-02-26T09:28:16;3.83;;;0.80;;
22230;SDS011;11284;48.086;-1.652;2024-02-26T09:30:43;4.38;;;0.77;;
22230;SDS011;11284;48.086;-1.652;2024-02-26T09:33:09;2.80;;;0.77;;
22230;SDS011;11284;48.086;-1.652;2024-02-26T09:35:35;3.88;;;0.73;;
22230;SDS011;11284;48.086;-1.652;2024-02-26T09:38:01;3.00;;;0.70;;
22230;SDS011;11284;48.086;-1.652;2024-02-26T09:40:27;3.95;;;0.93;;
22230;SDS011;11284;48.086;-1.652;2024-02-26T09:42:55;4.65;;;0.90;;
22230;SDS011;11284;48.086;-1.652;2024-02-26T09:45:22;5.60;;;1.08;;
22230;SDS011;11284;48.086;-1.652;2024-02-26T09:47:48;3.60;;;0.95;;
22230;SDS011;11284;48.086;-1.652;2024-02-26T09:50:17;3.95;;;0.73;;
22230;SDS011;11284;48.086;-1.652;2024-02-26T09:52:47;3.57;;;0.80;;
22230;SDS011;11284;48.086;-1.652;2024-02-26T09:55:13;4.97;;;0.90;;
22230;SDS011;11284;48.086;-1.652;2024-02-26T09:57:40;3.20;;;0.60;;
22230;SDS011;11284;48.086;-1.652;2024-02-26T10:00:10;4.18;;;0.85;;
22230;SDS011;11284;48.086;-1.652;2024-02-26T10:02:36;4.63;;;0.90;;
22230;SDS011;11284;48.086;-1.652;2024-02-26T10:05:03;5.32;;;1.35;;
22230;SDS011;11284;48.086;-1.652;2024-02-26T10:07:30;3.35;;;0.93;;
22230;SDS011;11284;48.086;-1.652;2024-02-26T10:09:57;5.00;;;1.02;;
22230;SDS011;11284;48.086;-1.652;2024-02-26T10:12:23;3.50;;;1.17;;
22230;SDS011;11284;48.086;-1.652;2024-02-26T10:14:51;3.63;;;0.93;;
22230;SDS011;11284;48.086;-1.652;2024-02-26T10:17:17;4.22;;;0.95;;
22230;SDS011;11284;48.086;-1.652;2024-02-26T10:19:44;4.05;;;0.88;;
22230;SDS011;11284;48.086;-1.652;2024-02-26T10:22:10;4.60;;;0.80;;
22230;SDS011;11284;48.086;-1.652;2024-02-26T10:24:36;3.53;;;0.70;;
22230;SDS011;11284;48.086;-1.652;2024-02-26T10:27:03;4.15;;;0.80;;
22230;SDS011;11284;48.086;-1.652;2024-02-26T10:29:29;4.90;;;1.00;;
22230;SDS011;11284;48.086;-1.652;2024-02-26T10:31:55;3.17;;;0.75;;
22230;SDS011;11284;48.086;-1.652;2024-02-26T10:34:22;5.05;;;0.82;;
22230;SDS011;11284;48.086;-1.652;2024-02-26T10:36:48;3.92;;;0.82;;
22230;SDS011;11284;48.086;-1.652;2024-02-26T10:39:15;5.03;;;0.88;;
22230;SDS011;11284;48.086;-1.652;2024-02-26T10:41:41;3.80;;;0.70;;
22230;SDS011;11284;48.086;-1.652;2024-02-26T10:44:09;4.25;;;0.70;;
22230;SDS011;11284;48.086;-1.652;2024-02-26T10:46:41;7.53;;;1.10;;
22230;SDS011;11284;48.086;-1.652;2024-02-26T10:49:12;4.28;;;0.82;;
22230;SDS011;11284;48.086;-1.652;2024-02-26T10:51:39;4.50;;;0.88;;
22230;SDS011;11284;48.086;-1.652;2024-02-26T10:54:07;3.60;;;0.90;;
22230;SDS011;11284;48.086;-1.652;2024-02-26T10:56:35;5.53;;;1.25;;
22230;SDS011;11284;48.086;-1.652;2024-02-26T10:59:04;3.72;;;1.00;;
22230;SDS011;11284;48.086;-1.652;2024-02-26T11:01:33;5.82;;;1.15;;
22230;SDS011;11284;48.086;-1.652;2024-02-26T11:04:03;4.88;;;0.90;;
22230;SDS011;11284;48.086;-1.652;2024-02-26T11:06:29;3.92;;;0.85;;
22230;SDS011;11284;48.086;-1.652;2024-02-26T11:08:55;4.97;;;1.25;;
22230;SDS011;11284;48.086;-1.652;2024-02-26T11:11:22;3.72;;;0.85;;
22230;SDS011;11284;48.086;-1.652;2024-02-26T11:13:48;5.28;;;1.23;;
22230;SDS011;11284;48.086;-1.652;2024-02-26T11:16:22;3.75;;;1.20;;
22230;SDS011;11284;48.086;-1.652;2024-02-26T11:18:49;3.40;;;0.90;;
22230;SDS011;11284;48.086;-1.652;2024-02-26T11:21:15;4.90;;;0.90;;
22230;SDS011;11284;48.086;-1.652;2024-02-26T11:23:47;6.22;;;1.40;;
22230;SDS011;11284;48.086;-1.652;2024-02-26T11:26:14;5.40;;;0.98;;
22230;SDS011;11284;48.086;-1.652;2024-02-26T11:28:41;5.05;;;1.13;;
22230;SDS011;11284;48.086;-1.652;2024-02-26T11:31:08;4.88;;;1.10;;
22230;SDS011;11284;48.086;-1.652;2024-02-26T11:33:34;3.67;;;1.00;;
22230;SDS011;11284;48.086;-1.652;2024-02-26T11:36:01;4.82;;;1.15;;
22230;SDS011;11284;48.086;-1.652;2024-02-26T11:38:28;5.43;;;1.17;;
22230;SDS011;11284;48.086;-1.652;2024-02-26T11:40:54;3.65;;;0.90;;
22230;SDS011;11284;48.086;-1.652;2024-02-26T11:43:33;5.82;;;1.23;;
22230;SDS011;11284;48.086;-1.652;2024-02-26T11:51:55;4.68;;;1.20;;
22230;SDS011;11284;48.086;-1.652;2024-02-26T11:57:29;4.97;;;0.95;;
22230;SDS011;11284;48.086;-1.652;2024-02-26T11:59:56;5.03;;;1.45;;
22230;SDS011;11284;48.086;-1.652;2024-02-26T12:05:22;4.63;;;1.27;;
22230;SDS011;11284;48.086;-1.652;2024-02-26T12:07:55;3.67;;;1.00;;
22230;SDS011;11284;48.086;-1.652;2024-02-26T12:12:52;4.95;;;1.33;;
22230;SDS011;11284;48.086;-1.652;2024-02-26T12:15:18;6.80;;;1.60;;
22230;SDS011;11284;48.086;-1.652;2024-02-26T12:17:48;7.35;;;1.30;;
22230;SDS011;11284;48.086;-1.652;2024-02-26T12:20:14;6.85;;;1.50;;
22230;SDS011;11284;48.086;-1.652;2024-02-26T12:22:44;4.85;;;1.40;;
22230;SDS011;11284;48.086;-1.652;2024-02-26T12:25:12;5.28;;;1.27;;
22230;SDS011;11284;48.086;-1.652;2024-02-26T12:27:38;4.88;;;1.10;;
22230;SDS011;11284;48.086;-1.652;2024-02-26T12:30:04;4.00;;;1.20;;
22230;SDS011;11284;48.086;-1.652;2024-02-26T12:32:31;4.53;;;1.20;;
22230;SDS011;11284;48.086;-1.652;2024-02-26T12:34:58;6.75;;;1.17;;
22230;SDS011;11284;48.086;-1.652;2024-02-26T12:37:25;3.85;;;1.20;;
22230;SDS011;11284;48.086;-1.652;2024-02-26T12:39:51;4.57;;;1.13;;
22230;SDS011;11284;48.086;-1.652;2024-02-26T12:42:17;4.80;;;1.23;;
22230;SDS011;11284;48.086;-1.652;2024-02-26T12:44:44;4.85;;;1.38;;
22230;SDS011;11284;48.086;-1.652;2024-02-26T12:47:10;5.25;;;1.20;;
22230;SDS011;11284;48.086;-1.652;2024-02-26T12:49:42;5.30;;;1.40;;
22230;SDS011;11284;48.086;-1.652;2024-02-26T12:52:09;4.45;;;1.42;;
22230;SDS011;11284;48.086;-1.652;2024-02-26T12:54:36;6.03;;;1.52;;
22230;SDS011;11284;48.086;-1.652;2024-02-26T12:57:04;5.60;;;2.03;;
22230;SDS011;11284;48.086;-1.652;2024-02-26T12:59:31;5.57;;;1.73;;
22230;SDS011;11284;48.086;-1.652;2024-02-26T13:01:58;5.70;;;2.00;;
22230;SDS011;11284;48.086;-1.652;2024-02-26T13:04:24;5.68;;;1.70;;
22230;SDS011;11284;48.086;-1.652;2024-02-26T13:06:50;5.45;;;1.45;;
22230;SDS011;11284;48.086;-1.652;2024-02-26T13:09:16;5.78;;;1.70;;
22230;SDS011;11284;48.086;-1.652;2024-02-26T13:11:43;7.68;;;1.48;;
22230;SDS011;11284;48.086;-1.652;2024-02-26T13:14:19;4.45;;;1.30;;
22230;SDS011;11284;48.086;-1.652;2024-02-26T13:16:54;5.45;;;1.50;;
22230;SDS011;11284;48.086;-1.652;2024-02-26T13:19:20;7.30;;;1.80;;
22230;SDS011;11284;48.086;-1.652;2024-02-26T13:21:46;7.50;;;1.95;;
22230;SDS011;11284;48.086;-1.652;2024-02-26T13:24:12;7.00;;;1.80;;
22230;SDS011;11284;48.086;-1.652;2024-02-26T13:26:38;9.23;;;2.20;;
22230;SDS011;11284;48.086;-1.652;2024-02-26T13:29:04;7.43;;;2.28;;
22230;SDS011;11284;48.086;-1.652;2024-02-26T13:31:31;7.65;;;2.03;;
22230;SDS011;11284;48.086;-1.652;2024-02-26T13:33:57;4.90;;;1.70;;
22230;SDS011;11284;48.086;-1.652;2024-02-26T13:36:24;8.52;;;1.88;;
22230;SDS011;11284;48.086;-1.652;2024-02-26T13:38:51;8.25;;;2.25;;
22230;SDS011;11284;48.086;-1.652;2024-02-26T13:41:18;8.68;;;2.17;;
22230;SDS011;11284;48.086;-1.652;2024-02-26T13:43:44;7.20;;;1.70;;
22230;SDS011;11284;48.086;-1.652;2024-02-26T13:46:10;7.05;;;1.65;;
22230;SDS011;11284;48.086;-1.652;2024-02-26T13:48:37;6.25;;;1.80;;
22230;SDS011;11284;48.086;-1.652;2024-02-26T13:51:03;6.65;;;1.58;;
22230;SDS011;11284;48.086;-1.652;2024-02-26T13:53:29;6.78;;;1.73;;
22230;SDS011;11284;48.086;-1.652;2024-02-26T13:55:55;8.02;;;1.85;;
22230;SDS011;11284;48.086;-1.652;2024-02-26T13:58:23;9.20;;;1.80;;
22230;SDS011;11284;48.086;-1.652;2024-02-26T14:00:52;6.80;;;2.03;;
22230;SDS011;11284;48.086;-1.652;2024-02-26T14:03:18;7.45;;;2.08;;
22230;SDS011;11284;48.086;-1.652;2024-02-26T14:05:44;7.15;;;1.70;;
22230;SDS011;11284;48.086;-1.652;2024-02-26T14:08:10;9.88;;;1.98;;
22230;SDS011;11284;48.086;-1.652;2024-02-26T14:10:36;9.27;;;2.10;;
22230;SDS011;11284;48.086;-1.652;2024-02-26T14:13:02;7.03;;;1.50;;
22230;SDS011;11284;48.086;-1.652;2024-02-26T14:15:28;5.00;;;1.45;;
22230;SDS011;11284;48.086;-1.652;2024-02-26T14:17:55;5.25;;;1.50;;
22230;SDS011;11284;48.086;-1.652;2024-02-26T14:20:24;8.10;;;1.60;;
22230;SDS011;11284;48.086;-1.652;2024-02-26T14:22:51;6.97;;;1.85;;
22230;SDS011;11284;48.086;-1.652;2024-02-26T14:25:18;8.63;;;1.80;;
22230;SDS011;11284;48.086;-1.652;2024-02-26T14:27:45;10.05;;;1.63;;
22230;SDS011;11284;48.086;-1.652;2024-02-26T14:30:11;7.20;;;2.33;;
22230;SDS011;11284;48.086;-1.652;2024-02-26T14:32:37;8.32;;;1.80;;
22230;SDS011;11284;48.086;-1.652;2024-02-26T14:35:07;7.03;;;1.90;;
22230;SDS011;11284;48.086;-1.652;2024-02-26T14:37:34;10.07;;;2.10;;
22230;SDS011;11284;48.086;-1.652;2024-02-26T14:40:00;9.07;;;1.90;;
22230;SDS011;11284;48.086;-1.652;2024-02-26T14:42:27;8.32;;;2.30;;